Monte Aconcagua — DGOH2 — position and weather

sailwx.info

Track history (hours):
 
Tides and Currents Weather Stations Pressure Air Temp Water Temp Dewpoint Dewpoint Depression Visibility Wind Speed Wind Dir Waves Ship Positions

Monte Aconcagua

Last reported at 2018-Apr-06 14:32 UTC. Time now 2018-Jun-22 03:08 UTC.
Position N 40°37' W 074°04'.
Warning: this ship's position is months out of date.

Length 272 m; draft 11.4 m.

Type: Ship (hazmat cat A). MMSI: 218764000.

Date/timePositionNaut miles runAvg speedWind from/ knotsBaromVisibWave heightAir tempDewpointWater temp
2018-Apr-06 14:32N 40°37' W 074°04'0 0.1
2018-Apr-06 14:22N 40°37' W 074°03'0 0.4
2018-Apr-06 13:58N 40°37' W 074°03'0 0.3
2018-Apr-06 13:28N 40°37' W 074°03'0 0.1
2018-Apr-06 12:58N 40°37' W 074°03'0 0.1
2018-Apr-06 12:28N 40°37' W 074°03'0 0.1
2018-Apr-06 11:58N 40°37' W 074°03'0 0.1
2018-Apr-06 11:28N 40°37' W 074°03'0 0.1
2018-Apr-06 10:58N 40°37' W 074°03'0 0.0
2018-Apr-06 10:28N 40°37' W 074°03'0 0.0
2018-Apr-06 09:58N 40°37' W 074°03'0 0.0
2018-Apr-06 09:28N 40°37' W 074°03'0 0.0
2018-Apr-06 08:58N 40°37' W 074°03'0 0.0
2018-Apr-06 08:28N 40°37' W 074°03'0 0.3
2018-Apr-06 07:58N 40°37' W 074°04'0 0.5
2018-Apr-06 07:28N 40°37' W 074°04'0 0.0
2018-Apr-06 06:58N 40°37' W 074°04'0 0.1
2018-Apr-06 06:28N 40°37' W 074°04'0 0.0
2018-Apr-06 05:58N 40°37' W 074°04'0 0.0
2018-Apr-06 05:28N 40°37' W 074°04'0 0.0
2018-Apr-06 04:58N 40°37' W 074°04'0 0.0
2018-Apr-06 04:28N 40°37' W 074°04'0 0.0
2018-Apr-06 03:58N 40°37' W 074°04'0 0.1
2018-Apr-06 03:28N 40°37' W 074°03'0 0.0
2018-Apr-06 02:58N 40°37' W 074°03'0 0.0
2018-Apr-06 02:28N 40°37' W 074°03'0 0.1
2018-Apr-06 01:58N 40°37' W 074°03'0 0.1
2018-Apr-06 01:25N 40°37' W 074°03'0 0.4
2018-Apr-06 00:58N 40°37' W 074°03'0 0.2
2018-Apr-06 00:28N 40°37' W 074°03'0 0.0
2018-Apr-05 23:58N 40°37' W 074°03'0 0.0
2018-Apr-05 23:28N 40°37' W 074°03'0 0.0
2018-Apr-05 22:58N 40°37' W 074°03'0 0.1
2018-Apr-05 22:30N 40°37' W 074°03'1 1.2
2018-Apr-05 22:00N 40°36' W 074°03'3 6.3
2018-Apr-05 21:30N 40°33' W 074°02'611.4
2018-Apr-05 21:00N 40°30' W 073°56'4 9.0
2018-Apr-05 20:30N 40°28' W 073°51'2 4.7
2018-Apr-05 20:00N 40°27' W 073°48'5 9.4
2018-Apr-05 19:29N 40°24' W 073°43'5 9.8
2018-Apr-05 19:00N 40°21' W 073°38'  
Track history (hours):
 
Tides and Currents Weather Stations Pressure Air Temp Water Temp Dewpoint Dewpoint Depression Visibility Wind Speed Wind Dir Waves Ship Positions

Monte Aconcagua

Last reported at 2018-Apr-06 14:32 UTC. Time now 2018-Jun-22 03:08 UTC.
Position N 40°37' W 074°04'.
Warning: this ship's position is months out of date.

Length 272 m; draft 11.4 m.

Type: Ship (hazmat cat A). MMSI: 218764000.

Date/timePositionNaut miles runAvg speedWind from/ knotsBaromVisibWave heightAir tempDewpointWater temp
2018-Apr-06 14:32N 40°37' W 074°04'0 0.1
2018-Apr-06 14:22N 40°37' W 074°03'0 0.4
2018-Apr-06 13:58N 40°37' W 074°03'0 0.3
2018-Apr-06 13:28N 40°37' W 074°03'0 0.1
2018-Apr-06 12:58N 40°37' W 074°03'0 0.1
2018-Apr-06 12:28N 40°37' W 074°03'0 0.1
2018-Apr-06 11:58N 40°37' W 074°03'0 0.1
2018-Apr-06 11:28N 40°37' W 074°03'0 0.1
2018-Apr-06 10:58N 40°37' W 074°03'0 0.0
2018-Apr-06 10:28N 40°37' W 074°03'0 0.0
2018-Apr-06 09:58N 40°37' W 074°03'0 0.0
2018-Apr-06 09:28N 40°37' W 074°03'0 0.0
2018-Apr-06 08:58N 40°37' W 074°03'0 0.0
2018-Apr-06 08:28N 40°37' W 074°03'0 0.3
2018-Apr-06 07:58N 40°37' W 074°04'0 0.5
2018-Apr-06 07:28N 40°37' W 074°04'0 0.0
2018-Apr-06 06:58N 40°37' W 074°04'0 0.1
2018-Apr-06 06:28N 40°37' W 074°04'0 0.0
2018-Apr-06 05:58N 40°37' W 074°04'0 0.0
2018-Apr-06 05:28N 40°37' W 074°04'0 0.0
2018-Apr-06 04:58N 40°37' W 074°04'0 0.0
2018-Apr-06 04:28N 40°37' W 074°04'0 0.0
2018-Apr-06 03:58N 40°37' W 074°04'0 0.1
2018-Apr-06 03:28N 40°37' W 074°03'0 0.0
2018-Apr-06 02:58N 40°37' W 074°03'0 0.0
2018-Apr-06 02:28N 40°37' W 074°03'0 0.1
2018-Apr-06 01:58N 40°37' W 074°03'0 0.1
2018-Apr-06 01:25N 40°37' W 074°03'0 0.4
2018-Apr-06 00:58N 40°37' W 074°03'0 0.2
2018-Apr-06 00:28N 40°37' W 074°03'0 0.0
2018-Apr-05 23:58N 40°37' W 074°03'0 0.0
2018-Apr-05 23:28N 40°37' W 074°03'0 0.0
2018-Apr-05 22:58N 40°37' W 074°03'0 0.1
2018-Apr-05 22:30N 40°37' W 074°03'1 1.2
2018-Apr-05 22:00N 40°36' W 074°03'3 6.3
2018-Apr-05 21:30N 40°33' W 074°02'611.4
2018-Apr-05 21:00N 40°30' W 073°56'4 9.0
2018-Apr-05 20:30N 40°28' W 073°51'2 4.7
2018-Apr-05 20:00N 40°27' W 073°48'5 9.4
2018-Apr-05 19:29N 40°24' W 073°43'5 9.8
2018-Apr-05 19:00N 40°21' W 073°38'  

Dump ship's entire track history